sensor_id;sensor_type;location;lat;lon;timestamp;pressure;altitude;pressure_sealevel;temperature;humidity
26436;BME280;15351;52.408;16.826;2023-02-13T00:01:42;102864.02;;;7.89;81.93
26436;BME280;15351;52.408;16.826;2023-02-13T00:04:18;102858.48;;;7.89;81.96
26436;BME280;15351;52.408;16.826;2023-02-13T00:06:49;102854.83;;;7.92;82.09
26436;BME280;15351;52.408;16.826;2023-02-13T00:09:40;102858.21;;;7.98;81.91
26436;BME280;15351;52.408;16.826;2023-02-13T00:12:09;102857.46;;;8.07;81.71
26436;BME280;15351;52.408;16.826;2023-02-13T00:14:39;102857.64;;;8.12;81.60
26436;BME280;15351;52.408;16.826;2023-02-13T00:17:08;102853.44;;;8.11;81.20
26436;BME280;15351;52.408;16.826;2023-02-13T00:19:36;102852.27;;;8.09;81.03
26436;BME280;15351;52.408;16.826;2023-02-13T00:22:06;102850.75;;;8.05;80.78
26436;BME280;15351;52.408;16.826;2023-02-13T00:24:34;102847.56;;;8.05;80.95
26436;BME280;15351;52.408;16.826;2023-02-13T00:27:04;102851.39;;;8.04;80.79
26436;BME280;15351;52.408;16.826;2023-02-13T00:29:31;102849.42;;;7.98;80.65
26436;BME280;15351;52.408;16.826;2023-02-13T00:32:01;102847.31;;;7.95;80.55
26436;BME280;15351;52.408;16.826;2023-02-13T00:34:32;102840.77;;;7.99;80.74
26436;BME280;15351;52.408;16.826;2023-02-13T00:37:17;102842.80;;;8.01;80.61
26436;BME280;15351;52.408;16.826;2023-02-13T00:43:01;102849.05;;;8.01;80.42
26436;BME280;15351;52.408;16.826;2023-02-13T00:45:33;102853.56;;;7.98;80.35
26436;BME280;15351;52.408;16.826;2023-02-13T00:48:04;102845.77;;;7.94;80.52
26436;BME280;15351;52.408;16.826;2023-02-13T00:50:39;102844.88;;;7.91;80.73
26436;BME280;15351;52.408;16.826;2023-02-13T00:53:10;102847.42;;;7.88;81.00
26436;BME280;15351;52.408;16.826;2023-02-13T00:55:41;102844.62;;;7.85;81.15
26436;BME280;15351;52.408;16.826;2023-02-13T00:58:22;102844.23;;;7.82;81.40
26436;BME280;15351;52.408;16.826;2023-02-13T01:00:52;102848.52;;;7.74;81.62
26436;BME280;15351;52.408;16.826;2023-02-13T01:03:27;102846.60;;;7.74;81.82
26436;BME280;15351;52.408;16.826;2023-02-13T01:05:56;102843.24;;;7.75;82.26
26436;BME280;15351;52.408;16.826;2023-02-13T01:08:29;102839.49;;;7.78;82.50
26436;BME280;15351;52.408;16.826;2023-02-13T01:11:00;102843.73;;;7.81;82.55
26436;BME280;15351;52.408;16.826;2023-02-13T01:13:50;102843.31;;;7.80;82.52
26436;BME280;15351;52.408;16.826;2023-02-13T01:16:58;102840.45;;;7.74;82.75
26436;BME280;15351;52.408;16.826;2023-02-13T01:19:30;102836.33;;;7.74;82.93
26436;BME280;15351;52.408;16.826;2023-02-13T01:22:25;102836.23;;;7.76;83.21
26436;BME280;15351;52.408;16.826;2023-02-13T01:24:57;102831.86;;;7.77;83.17
26436;BME280;15351;52.408;16.826;2023-02-13T01:27:32;102829.38;;;7.74;83.08
26436;BME280;15351;52.408;16.826;2023-02-13T01:30:06;102827.73;;;7.75;83.40
26436;BME280;15351;52.408;16.826;2023-02-13T01:33:08;102825.27;;;7.74;83.36
26436;BME280;15351;52.408;16.826;2023-02-13T01:35:40;102823.71;;;7.75;83.68
26436;BME280;15351;52.408;16.826;2023-02-13T01:38:11;102823.44;;;7.85;83.87
26436;BME280;15351;52.408;16.826;2023-02-13T01:40:46;102821.15;;;7.85;83.64
26436;BME280;15351;52.408;16.826;2023-02-13T01:43:14;102824.27;;;7.80;83.70
26436;BME280;15351;52.408;16.826;2023-02-13T01:45:46;102821.08;;;7.80;83.81
26436;BME280;15351;52.408;16.826;2023-02-13T01:48:21;102826.85;;;7.77;83.78
26436;BME280;15351;52.408;16.826;2023-02-13T01:50:52;102823.26;;;7.74;84.12
26436;BME280;15351;52.408;16.826;2023-02-13T01:53:43;102814.30;;;7.77;84.30
26436;BME280;15351;52.408;16.826;2023-02-13T01:56:36;102810.83;;;7.75;84.01
26436;BME280;15351;52.408;16.826;2023-02-13T01:59:12;102813.61;;;7.76;84.20
26436;BME280;15351;52.408;16.826;2023-02-13T02:01:41;102813.95;;;7.74;84.24
26436;BME280;15351;52.408;16.826;2023-02-13T02:04:14;102811.41;;;7.70;84.38
26436;BME280;15351;52.408;16.826;2023-02-13T02:06:47;102814.92;;;7.71;84.53
26436;BME280;15351;52.408;16.826;2023-02-13T02:09:26;102811.69;;;7.73;84.56
26436;BME280;15351;52.408;16.826;2023-02-13T02:14:54;102805.60;;;7.71;84.66
26436;BME280;15351;52.408;16.826;2023-02-13T02:17:25;102806.48;;;7.73;84.85
26436;BME280;15351;52.408;16.826;2023-02-13T02:25:48;102801.79;;;7.82;84.99
26436;BME280;15351;52.408;16.826;2023-02-13T02:32:13;102791.46;;;7.78;84.84
26436;BME280;15351;52.408;16.826;2023-02-13T02:35:16;102795.92;;;7.76;84.85
26436;BME280;15351;52.408;16.826;2023-02-13T02:40:45;102790.29;;;7.75;84.65
26436;BME280;15351;52.408;16.826;2023-02-13T02:46:26;102791.06;;;7.69;84.72
26436;BME280;15351;52.408;16.826;2023-02-13T02:49:12;102792.77;;;7.68;84.94
26436;BME280;15351;52.408;16.826;2023-02-13T02:52:07;102791.48;;;7.68;84.91
26436;BME280;15351;52.408;16.826;2023-02-13T02:54:48;102788.61;;;7.68;84.94
26436;BME280;15351;52.408;16.826;2023-02-13T02:57:44;102784.84;;;7.65;85.05
26436;BME280;15351;52.408;16.826;2023-02-13T03:00:40;102789.39;;;7.65;85.00
26436;BME280;15351;52.408;16.826;2023-02-13T03:03:33;102787.43;;;7.64;85.37
26436;BME280;15351;52.408;16.826;2023-02-13T03:08:59;102793.40;;;7.63;85.14
26436;BME280;15351;52.408;16.826;2023-02-13T03:11:50;102792.23;;;7.59;85.30
26436;BME280;15351;52.408;16.826;2023-02-13T03:14:39;102792.09;;;7.56;85.49
26436;BME280;15351;52.408;16.826;2023-02-13T03:17:12;102792.06;;;7.59;85.68
26436;BME280;15351;52.408;16.826;2023-02-13T03:20:07;102786.90;;;7.62;85.66
26436;BME280;15351;52.408;16.826;2023-02-13T03:23:13;102785.41;;;7.57;85.70
26436;BME280;15351;52.408;16.826;2023-02-13T03:28:49;102777.60;;;7.61;86.00
26436;BME280;15351;52.408;16.826;2023-02-13T03:31:57;102779.89;;;7.65;86.04
26436;BME280;15351;52.408;16.826;2023-02-13T03:35:08;102781.83;;;7.65;86.06
26436;BME280;15351;52.408;16.826;2023-02-13T03:38:03;102784.48;;;7.63;86.04
26436;BME280;15351;52.408;16.826;2023-02-13T03:40:55;102780.25;;;7.62;86.12
26436;BME280;15351;52.408;16.826;2023-02-13T03:46:38;102781.08;;;7.66;86.21
26436;BME280;15351;52.408;16.826;2023-02-13T03:49:15;102781.06;;;7.63;86.28
26436;BME280;15351;52.408;16.826;2023-02-13T03:54:55;102777.41;;;7.51;86.54
26436;BME280;15351;52.408;16.826;2023-02-13T03:57:44;102778.56;;;7.50;86.68
26436;BME280;15351;52.408;16.826;2023-02-13T04:00:39;102777.27;;;7.50;86.96
26436;BME280;15351;52.408;16.826;2023-02-13T04:05:52;102779.71;;;7.62;87.35
26436;BME280;15351;52.408;16.826;2023-02-13T04:08:22;102774.46;;;7.65;87.20
26436;BME280;15351;52.408;16.826;2023-02-13T04:10:53;102775.64;;;7.67;87.07
26436;BME280;15351;52.408;16.826;2023-02-13T04:13:51;102774.77;;;7.66;87.28
26436;BME280;15351;52.408;16.826;2023-02-13T04:16:29;102772.61;;;7.61;87.20
26436;BME280;15351;52.408;16.826;2023-02-13T04:18:59;102776.59;;;7.60;87.65
26436;BME280;15351;52.408;16.826;2023-02-13T04:21:32;102779.23;;;7.69;87.94
26436;BME280;15351;52.408;16.826;2023-02-13T04:24:00;102777.31;;;7.76;87.74
26436;BME280;15351;52.408;16.826;2023-02-13T04:26:35;102782.41;;;7.82;87.70
26436;BME280;15351;52.408;16.826;2023-02-13T04:29:04;102778.83;;;7.85;87.62
26436;BME280;15351;52.408;16.826;2023-02-13T04:31:35;102783.31;;;7.90;87.76
26436;BME280;15351;52.408;16.826;2023-02-13T04:34:04;102789.27;;;7.97;87.68
26436;BME280;15351;52.408;16.826;2023-02-13T04:36:33;102787.01;;;7.99;87.59
26436;BME280;15351;52.408;16.826;2023-02-13T04:39:01;102789.04;;;8.01;87.51
26436;BME280;15351;52.408;16.826;2023-02-13T04:41:29;102789.35;;;8.07;87.37
26436;BME280;15351;52.408;16.826;2023-02-13T04:43:57;102789.29;;;8.16;87.41
26436;BME280;15351;52.408;16.826;2023-02-13T04:46:25;102787.34;;;8.23;87.22
26436;BME280;15351;52.408;16.826;2023-02-13T04:48:57;102788.98;;;8.27;86.96
26436;BME280;15351;52.408;16.826;2023-02-13T04:51:25;102793.62;;;8.25;86.49
26436;BME280;15351;52.408;16.826;2023-02-13T04:53:54;102788.30;;;8.17;86.44
26436;BME280;15351;52.408;16.826;2023-02-13T04:56:21;102783.95;;;8.15;86.48
26436;BME280;15351;52.408;16.826;2023-02-13T04:58:49;102787.00;;;8.15;86.71
26436;BME280;15351;52.408;16.826;2023-02-13T05:01:20;102779.41;;;8.23;86.89
26436;BME280;15351;52.408;16.826;2023-02-13T05:03:48;102778.80;;;8.32;86.69
26436;BME280;15351;52.408;16.826;2023-02-13T05:06:16;102780.42;;;8.39;86.35
26436;BME280;15351;52.408;16.826;2023-02-13T05:08:45;102788.52;;;8.39;86.08
26436;BME280;15351;52.408;16.826;2023-02-13T05:11:13;102791.73;;;8.37;85.88
26436;BME280;15351;52.408;16.826;2023-02-13T05:13:40;102791.48;;;8.33;85.89
26436;BME280;15351;52.408;16.826;2023-02-13T05:16:08;102791.91;;;8.34;85.85
26436;BME280;15351;52.408;16.826;2023-02-13T05:18:36;102798.73;;;8.32;85.79
26436;BME280;15351;52.408;16.826;2023-02-13T05:21:03;102804.52;;;8.31;85.94
26436;BME280;15351;52.408;16.826;2023-02-13T05:23:50;102800.57;;;8.28;85.81
26436;BME280;15351;52.408;16.826;2023-02-13T05:26:19;102798.80;;;8.25;86.03
26436;BME280;15351;52.408;16.826;2023-02-13T05:28:50;102798.46;;;8.28;85.88
26436;BME280;15351;52.408;16.826;2023-02-13T05:31:37;102808.38;;;8.30;85.83
26436;BME280;15351;52.408;16.826;2023-02-13T05:34:04;102806.13;;;8.29;85.77
26436;BME280;15351;52.408;16.826;2023-02-13T05:36:31;102803.58;;;8.29;85.86
26436;BME280;15351;52.408;16.826;2023-02-13T05:39:00;102800.21;;;8.31;85.96
26436;BME280;15351;52.408;16.826;2023-02-13T05:41:27;102801.55;;;8.32;85.73
26436;BME280;15351;52.408;16.826;2023-02-13T05:43:55;102804.96;;;8.30;85.59
26436;BME280;15351;52.408;16.826;2023-02-13T05:46:23;102808.17;;;8.22;85.53
26436;BME280;15351;52.408;16.826;2023-02-13T05:48:52;102807.16;;;8.24;85.91
26436;BME280;15351;52.408;16.826;2023-02-13T05:51:21;102810.29;;;8.25;85.83
26436;BME280;15351;52.408;16.826;2023-02-13T05:53:48;102811.27;;;8.21;85.67
26436;BME280;15351;52.408;16.826;2023-02-13T05:56:17;102815.48;;;8.15;85.89
26436;BME280;15351;52.408;16.826;2023-02-13T05:58:45;102825.36;;;8.15;85.90
26436;BME280;15351;52.408;16.826;2023-02-13T06:01:13;102823.20;;;8.15;85.89
26436;BME280;15351;52.408;16.826;2023-02-13T06:03:46;102824.31;;;8.17;85.81
26436;BME280;15351;52.408;16.826;2023-02-13T06:06:13;102823.70;;;8.13;85.87
26436;BME280;15351;52.408;16.826;2023-02-13T06:08:42;102822.00;;;8.12;86.02
26436;BME280;15351;52.408;16.826;2023-02-13T06:11:09;102818.98;;;8.14;86.09
26436;BME280;15351;52.408;16.826;2023-02-13T06:13:57;102820.83;;;8.11;85.91
26436;BME280;15351;52.408;16.826;2023-02-13T06:16:24;102821.88;;;8.06;85.89
26436;BME280;15351;52.408;16.826;2023-02-13T06:18:52;102823.66;;;8.03;86.02
26436;BME280;15351;52.408;16.826;2023-02-13T06:21:19;102826.67;;;8.04;86.29
26436;BME280;15351;52.408;16.826;2023-02-13T06:23:47;102830.10;;;8.06;86.17
26436;BME280;15351;52.408;16.826;2023-02-13T06:26:15;102832.90;;;8.04;86.08
26436;BME280;15351;52.408;16.826;2023-02-13T06:28:44;102830.22;;;8.04;85.99
26436;BME280;15351;52.408;16.826;2023-02-13T06:31:14;102831.10;;;8.02;85.90
26436;BME280;15351;52.408;16.826;2023-02-13T06:33:42;102838.59;;;8.02;85.85
26436;BME280;15351;52.408;16.826;2023-02-13T06:36:10;102838.73;;;8.08;85.97
26436;BME280;15351;52.408;16.826;2023-02-13T06:38:38;102842.87;;;8.13;85.60
26436;BME280;15351;52.408;16.826;2023-02-13T06:41:06;102845.91;;;8.16;85.41
26436;BME280;15351;52.408;16.826;2023-02-13T06:43:34;102845.21;;;8.20;85.26
26436;BME280;15351;52.408;16.826;2023-02-13T06:46:05;102845.55;;;8.26;85.09
26436;BME280;15351;52.408;16.826;2023-02-13T06:48:34;102851.55;;;8.35;84.78
26436;BME280;15351;52.408;16.826;2023-02-13T06:51:03;102849.45;;;8.39;84.33
26436;BME280;15351;52.408;16.826;2023-02-13T06:53:31;102848.30;;;8.35;83.87
26436;BME280;15351;52.408;16.826;2023-02-13T06:56:02;102853.20;;;8.37;83.87
26436;BME280;15351;52.408;16.826;2023-02-13T06:58:32;102851.92;;;8.40;83.56
26436;BME280;15351;52.408;16.826;2023-02-13T07:01:04;102851.34;;;8.43;83.02
26436;BME280;15351;52.408;16.826;2023-02-13T07:03:33;102854.48;;;8.39;82.94
26436;BME280;15351;52.408;16.826;2023-02-13T07:06:01;102858.52;;;8.38;82.95
26436;BME280;15351;52.408;16.826;2023-02-13T07:08:28;102861.16;;;8.38;82.97
26436;BME280;15351;52.408;16.826;2023-02-13T07:10:56;102865.55;;;8.35;82.51
26436;BME280;15351;52.408;16.826;2023-02-13T07:13:23;102873.11;;;8.29;82.48
26436;BME280;15351;52.408;16.826;2023-02-13T07:15:52;102863.70;;;8.25;82.47
26436;BME280;15351;52.408;16.826;2023-02-13T07:18:29;102869.06;;;8.15;82.57
26436;BME280;15351;52.408;16.826;2023-02-13T07:20:57;102868.32;;;8.05;82.62
26436;BME280;15351;52.408;16.826;2023-02-13T07:23:25;102865.93;;;7.98;83.05
26436;BME280;15351;52.408;16.826;2023-02-13T07:25:52;102866.13;;;7.95;83.06
26436;BME280;15351;52.408;16.826;2023-02-13T07:28:23;102872.52;;;7.88;83.19
26436;BME280;15351;52.408;16.826;2023-02-13T07:30:53;102873.57;;;7.83;83.50
26436;BME280;15351;52.408;16.826;2023-02-13T07:33:22;102878.06;;;7.83;83.65
26436;BME280;15351;52.408;16.826;2023-02-13T07:35:51;102875.48;;;7.89;83.96
26436;BME280;15351;52.408;16.826;2023-02-13T07:38:20;102882.46;;;7.94;83.79
26436;BME280;15351;52.408;16.826;2023-02-13T07:40:49;102876.61;;;7.96;83.49
26436;BME280;15351;52.408;16.826;2023-02-13T07:43:17;102879.38;;;8.00;83.53
26436;BME280;15351;52.408;16.826;2023-02-13T07:45:45;102881.59;;;7.99;83.40
26436;BME280;15351;52.408;16.826;2023-02-13T07:48:14;102875.95;;;8.01;83.34
26436;BME280;15351;52.408;16.826;2023-02-13T07:50:41;102879.48;;;8.02;82.92
26436;BME280;15351;52.408;16.826;2023-02-13T07:53:08;102878.39;;;7.96;82.74
26436;BME280;15351;52.408;16.826;2023-02-13T07:55:35;102874.34;;;7.95;82.76
26436;BME280;15351;52.408;16.826;2023-02-13T07:58:06;102868.13;;;8.00;82.92
26436;BME280;15351;52.408;16.826;2023-02-13T08:00:35;102867.80;;;8.02;82.74
26436;BME280;15351;52.408;16.826;2023-02-13T08:03:03;102868.23;;;8.04;82.35
26436;BME280;15351;52.408;16.826;2023-02-13T08:05:32;102867.55;;;8.03;82.32
26436;BME280;15351;52.408;16.826;2023-02-13T08:08:00;102871.59;;;8.10;82.28
26436;BME280;15351;52.408;16.826;2023-02-13T08:10:27;102875.74;;;8.12;82.28
26436;BME280;15351;52.408;16.826;2023-02-13T08:13:15;102874.79;;;8.18;81.96
26436;BME280;15351;52.408;16.826;2023-02-13T08:15:45;102875.85;;;8.16;81.39
26436;BME280;15351;52.408;16.826;2023-02-13T08:18:12;102878.63;;;8.15;81.29
26436;BME280;15351;52.408;16.826;2023-02-13T08:20:56;102879.59;;;8.16;81.37
26436;BME280;15351;52.408;16.826;2023-02-13T08:23:22;102873.10;;;8.14;81.04
26436;BME280;15351;52.408;16.826;2023-02-13T08:25:50;102872.13;;;8.10;80.77
26436;BME280;15351;52.408;16.826;2023-02-13T08:28:17;102869.34;;;8.11;80.48
26436;BME280;15351;52.408;16.826;2023-02-13T08:30:46;102873.02;;;8.07;80.32
26436;BME280;15351;52.408;16.826;2023-02-13T08:33:13;102875.67;;;7.99;80.16
26436;BME280;15351;52.408;16.826;2023-02-13T08:35:42;102878.87;;;7.92;80.37
26436;BME280;15351;52.408;16.826;2023-02-13T08:38:10;102875.42;;;7.95;80.09
26436;BME280;15351;52.408;16.826;2023-02-13T08:40:40;102873.07;;;7.98;79.92
26436;BME280;15351;52.408;16.826;2023-02-13T08:43:08;102874.55;;;7.97;79.77
26436;BME280;15351;52.408;16.826;2023-02-13T08:45:35;102870.44;;;7.97;79.99
26436;BME280;15351;52.408;16.826;2023-02-13T08:48:04;102869.17;;;8.00;80.08
26436;BME280;15351;52.408;16.826;2023-02-13T08:50:37;102868.88;;;8.10;80.04
26436;BME280;15351;52.408;16.826;2023-02-13T08:53:21;102869.01;;;8.14;79.60
26436;BME280;15351;52.408;16.826;2023-02-13T08:55:54;102868.95;;;8.09;79.40
26436;BME280;15351;52.408;16.826;2023-02-13T08:58:25;102869.06;;;8.02;79.15
26436;BME280;15351;52.408;16.826;2023-02-13T09:00:53;102868.57;;;7.98;79.09
26436;BME280;15351;52.408;16.826;2023-02-13T09:03:22;102870.91;;;8.01;79.09
26436;BME280;15351;52.408;16.826;2023-02-13T09:06:07;102871.34;;;8.00;78.95
26436;BME280;15351;52.408;16.826;2023-02-13T09:08:36;102865.73;;;7.98;79.17
26436;BME280;15351;52.408;16.826;2023-02-13T09:11:08;102866.92;;;7.99;79.23
26436;BME280;15351;52.408;16.826;2023-02-13T09:13:36;102865.01;;;8.01;79.30
26436;BME280;15351;52.408;16.826;2023-02-13T09:16:09;102863.47;;;8.05;79.09
26436;BME280;15351;52.408;16.826;2023-02-13T09:18:41;102862.16;;;8.01;79.00
26436;BME280;15351;52.408;16.826;2023-02-13T09:21:10;102864.13;;;7.95;79.26
26436;BME280;15351;52.408;16.826;2023-02-13T09:23:39;102866.27;;;7.95;79.39
26436;BME280;15351;52.408;16.826;2023-02-13T09:26:10;102866.07;;;7.95;79.33
26436;BME280;15351;52.408;16.826;2023-02-13T09:28:38;102870.58;;;8.01;79.25
26436;BME280;15351;52.408;16.826;2023-02-13T09:31:06;102872.47;;;8.02;79.33
26436;BME280;15351;52.408;16.826;2023-02-13T09:33:36;102870.11;;;8.00;79.29
26436;BME280;15351;52.408;16.826;2023-02-13T09:36:05;102868.36;;;7.99;79.35
26436;BME280;15351;52.408;16.826;2023-02-13T09:38:34;102868.02;;;7.98;79.37
26436;BME280;15351;52.408;16.826;2023-02-13T09:41:25;102865.48;;;7.99;79.17
26436;BME280;15351;52.408;16.826;2023-02-13T09:47:27;102869.05;;;7.97;79.32
26436;BME280;15351;52.408;16.826;2023-02-13T09:52:43;102871.95;;;8.07;79.25
26436;BME280;15351;52.408;16.826;2023-02-13T09:55:18;102872.45;;;8.08;79.10
26436;BME280;15351;52.408;16.826;2023-02-13T09:57:56;102867.74;;;8.06;79.11
26436;BME280;15351;52.408;16.826;2023-02-13T10:00:34;102868.84;;;8.11;79.11
26436;BME280;15351;52.408;16.826;2023-02-13T10:03:14;102870.62;;;8.16;78.86
26436;BME280;15351;52.408;16.826;2023-02-13T10:09:05;102871.02;;;8.18;78.93
26436;BME280;15351;52.408;16.826;2023-02-13T10:12:19;102870.87;;;8.17;78.92
26436;BME280;15351;52.408;16.826;2023-02-13T10:15:08;102872.16;;;8.22;78.75
26436;BME280;15351;52.408;16.826;2023-02-13T10:17:44;102873.31;;;8.24;78.41
26436;BME280;15351;52.408;16.826;2023-02-13T10:23:21;102871.73;;;8.13;78.49
26436;BME280;15351;52.408;16.826;2023-02-13T10:25:53;102875.56;;;8.20;78.43
26436;BME280;15351;52.408;16.826;2023-02-13T10:28:45;102874.66;;;8.22;78.39
26436;BME280;15351;52.408;16.826;2023-02-13T10:31:35;102869.96;;;8.25;78.51
26436;BME280;15351;52.408;16.826;2023-02-13T10:34:13;102871.47;;;8.30;78.24
26436;BME280;15351;52.408;16.826;2023-02-13T10:36:46;102869.68;;;8.35;78.05
26436;BME280;15351;52.408;16.826;2023-02-13T10:39:24;102865.49;;;8.38;77.61
26436;BME280;15351;52.408;16.826;2023-02-13T11:01:52;102856.77;;;8.48;75.96
26436;BME280;15351;52.408;16.826;2023-02-13T11:04:22;102854.17;;;8.44;75.88
26436;BME280;15351;52.408;16.826;2023-02-13T11:07:03;102850.78;;;8.38;76.03
26436;BME280;15351;52.408;16.826;2023-02-13T11:09:37;102851.23;;;8.40;76.49
26436;BME280;15351;52.408;16.826;2023-02-13T11:12:26;102853.05;;;8.44;76.55
26436;BME280;15351;52.408;16.826;2023-02-13T11:17:49;102847.80;;;8.48;76.08
26436;BME280;15351;52.408;16.826;2023-02-13T11:20:36;102845.38;;;8.44;76.29
26436;BME280;15351;52.408;16.826;2023-02-13T11:26:33;102850.11;;;8.40;76.11
26436;BME280;15351;52.408;16.826;2023-02-13T11:29:15;102846.58;;;8.37;75.98
26436;BME280;15351;52.408;16.826;2023-02-13T11:34:44;102847.46;;;8.42;76.55
26436;BME280;15351;52.408;16.826;2023-02-13T11:37:17;102842.31;;;8.44;76.46
26436;BME280;15351;52.408;16.826;2023-02-13T11:39:55;102842.20;;;8.46;76.34
26436;BME280;15351;52.408;16.826;2023-02-13T11:42:41;102840.50;;;8.47;76.35
26436;BME280;15351;52.408;16.826;2023-02-13T11:45:38;102841.62;;;8.41;76.40
26436;BME280;15351;52.408;16.826;2023-02-13T11:48:19;102841.60;;;8.41;76.63
26436;BME280;15351;52.408;16.826;2023-02-13T11:50:55;102840.66;;;8.50;76.47
26436;BME280;15351;52.408;16.826;2023-02-13T11:53:26;102836.40;;;8.57;76.34
26436;BME280;15351;52.408;16.826;2023-02-13T11:56:14;102832.80;;;8.57;76.45
26436;BME280;15351;52.408;16.826;2023-02-13T11:58:57;102828.89;;;8.57;76.43
26436;BME280;15351;52.408;16.826;2023-02-13T12:01:27;102824.60;;;8.56;76.31
26436;BME280;15351;52.408;16.826;2023-02-13T12:04:15;102820.96;;;8.59;76.03
26436;BME280;15351;52.408;16.826;2023-02-13T12:07:27;102821.84;;;8.57;75.93
26436;BME280;15351;52.408;16.826;2023-02-13T12:10:26;102823.67;;;8.59;76.18
26436;BME280;15351;52.408;16.826;2023-02-13T12:13:06;102829.17;;;8.65;76.04
26436;BME280;15351;52.408;16.826;2023-02-13T12:16:01;102832.81;;;8.66;75.77
26436;BME280;15351;52.408;16.826;2023-02-13T12:18:43;102834.81;;;8.66;75.82
26436;BME280;15351;52.408;16.826;2023-02-13T12:21:57;102834.02;;;8.72;76.02
26436;BME280;15351;52.408;16.826;2023-02-13T12:33:13;102835.61;;;8.75;75.24
26436;BME280;15351;52.408;16.826;2023-02-13T12:39:24;102813.29;;;8.76;74.95
26436;BME280;15351;52.408;16.826;2023-02-13T13:02:17;102792.11;;;8.52;74.19
26436;BME280;15351;52.408;16.826;2023-02-13T13:05:10;102790.02;;;8.41;74.24
26436;BME280;15351;52.408;16.826;2023-02-13T13:08:07;102785.23;;;8.42;74.59
26436;BME280;15351;52.408;16.826;2023-02-13T13:17:56;102785.95;;;8.37;74.64
26436;BME280;15351;52.408;16.826;2023-02-13T13:26:45;102784.09;;;8.43;74.99
26436;BME280;15351;52.408;16.826;2023-02-13T13:32:24;102766.34;;;8.46;74.51
26436;BME280;15351;52.408;16.826;2023-02-13T13:35:02;102760.86;;;8.45;74.57
26436;BME280;15351;52.408;16.826;2023-02-13T13:37:49;102764.33;;;8.41;74.52
26436;BME280;15351;52.408;16.826;2023-02-13T13:54:49;102713.42;;;8.21;74.54
26436;BME280;15351;52.408;16.826;2023-02-13T13:57:23;102736.39;;;8.18;74.48
26436;BME280;15351;52.408;16.826;2023-02-13T13:59:58;102749.34;;;8.23;74.93
26436;BME280;15351;52.408;16.826;2023-02-13T14:02:47;102748.26;;;8.33;74.99
26436;BME280;15351;52.408;16.826;2023-02-13T14:05:32;102745.57;;;8.40;74.52
26436;BME280;15351;52.408;16.826;2023-02-13T14:13:30;102747.84;;;8.46;74.25
26436;BME280;15351;52.408;16.826;2023-02-13T14:16:03;102742.90;;;8.53;73.94
26436;BME280;15351;52.408;16.826;2023-02-13T14:18:53;102743.39;;;8.56;73.70
26436;BME280;15351;52.408;16.826;2023-02-13T14:21:45;102742.27;;;8.59;73.42
26436;BME280;15351;52.408;16.826;2023-02-13T14:24:12;102737.81;;;8.61;73.41
26436;BME280;15351;52.408;16.826;2023-02-13T14:26:41;102730.36;;;8.59;73.31
26436;BME280;15351;52.408;16.826;2023-02-13T14:29:17;102728.95;;;8.59;72.91
26436;BME280;15351;52.408;16.826;2023-02-13T14:31:59;102738.83;;;8.54;72.24
26436;BME280;15351;52.408;16.826;2023-02-13T14:34:34;102734.13;;;8.52;72.10
26436;BME280;15351;52.408;16.826;2023-02-13T14:37:16;102728.52;;;8.51;71.74
26436;BME280;15351;52.408;16.826;2023-02-13T14:40:47;102727.80;;;8.46;71.90
26436;BME280;15351;52.408;16.826;2023-02-13T14:43:34;102725.66;;;8.51;71.79
26436;BME280;15351;52.408;16.826;2023-02-13T14:51:58;102730.27;;;8.54;71.16
26436;BME280;15351;52.408;16.826;2023-02-13T14:54:38;102727.48;;;8.55;71.51
26436;BME280;15351;52.408;16.826;2023-02-13T14:57:16;102720.39;;;8.54;71.34
26436;BME280;15351;52.408;16.826;2023-02-13T14:59:54;102725.92;;;8.57;71.17
26436;BME280;15351;52.408;16.826;2023-02-13T15:02:52;102729.73;;;8.58;70.78
26436;BME280;15351;52.408;16.826;2023-02-13T15:05:42;102728.31;;;8.58;70.68
26436;BME280;15351;52.408;16.826;2023-02-13T15:08:20;102730.39;;;8.57;70.66
26436;BME280;15351;52.408;16.826;2023-02-13T15:10:55;102731.70;;;8.59;70.70
26436;BME280;15351;52.408;16.826;2023-02-13T15:13:33;102724.80;;;8.59;70.52
26436;BME280;15351;52.408;16.826;2023-02-13T15:16:06;102723.71;;;8.58;70.06
26436;BME280;15351;52.408;16.826;2023-02-13T15:18:46;102727.76;;;8.56;69.89
26436;BME280;15351;52.408;16.826;2023-02-13T15:21:23;102737.94;;;8.57;70.03
26436;BME280;15351;52.408;16.826;2023-02-13T15:23:53;102739.90;;;8.55;70.13
26436;BME280;15351;52.408;16.826;2023-02-13T15:26:24;102738.42;;;8.53;70.42
26436;BME280;15351;52.408;16.826;2023-02-13T15:29:04;102747.89;;;8.53;70.22
26436;BME280;15351;52.408;16.826;2023-02-13T15:31:43;102741.55;;;8.54;70.23
26436;BME280;15351;52.408;16.826;2023-02-13T15:34:31;102739.69;;;8.55;70.14
26436;BME280;15351;52.408;16.826;2023-02-13T15:37:04;102739.16;;;8.57;70.34
26436;BME280;15351;52.408;16.826;2023-02-13T15:39:38;102742.30;;;8.58;70.59
26436;BME280;15351;52.408;16.826;2023-02-13T15:42:10;102741.77;;;8.60;70.30
26436;BME280;15351;52.408;16.826;2023-02-13T15:44:49;102738.43;;;8.59;70.06
26436;BME280;15351;52.408;16.826;2023-02-13T15:47:29;102732.40;;;8.59;69.89
26436;BME280;15351;52.408;16.826;2023-02-13T15:49:58;102727.81;;;8.60;69.89
26436;BME280;15351;52.408;16.826;2023-02-13T15:52:38;102728.44;;;8.52;69.85
26436;BME280;15351;52.408;16.826;2023-02-13T15:55:21;102728.45;;;8.47;70.19
26436;BME280;15351;52.408;16.826;2023-02-13T15:58:00;102733.27;;;8.42;70.05
26436;BME280;15351;52.408;16.826;2023-02-13T16:00:32;102728.86;;;8.43;70.02
26436;BME280;15351;52.408;16.826;2023-02-13T16:03:01;102729.58;;;8.43;69.94
26436;BME280;15351;52.408;16.826;2023-02-13T16:05:36;102719.29;;;8.44;70.22
26436;BME280;15351;52.408;16.826;2023-02-13T16:08:29;102721.20;;;8.45;70.39